METAR Data
IDs: Format: Raw Decoded Include TAF

Data at: 1349 UTC 14 Dec 2019

PABR 141253Z AUTO 13006KT 10SM CLR M21/M24 A2971 RMK AO2 SLP062 T12061239 TSNO
PABR 141153Z AUTO 13004KT 10SM CLR M21/M23 A2970 RMK AO2 SLP059 T12111233 11206 21217 53017 TSNO
PABR 141053Z AUTO 16004KT 10SM CLR M21/M23 A2968 RMK AO2 SLP054 T12061233 TSNO
PABR 140953Z AUTO 14006KT 10SM CLR M21/M23 A2966 RMK AO2 SLP046 T12061233 TSNO
PABR 140853Z AUTO 14007KT 10SM CLR M21/M23 A2965 RMK AO2 SLP042 T12061233 410891222 53013 TSNO
PABR 140753Z AUTO 14007KT 10SM CLR M22/M24 A2963 RMK AO2 SLP035 T12171239 TSNO
PABR 140653Z 14007KT 10SM CLR M22/M24 A2961 RMK AO2 SLP029 T12171244
PABR 140553Z 14006KT 10SM CLR M22/M24 A2961 RMK AO2 SLP029 T12171244 11200 21222 53011
PABR 140453Z 12007KT 10SM FEW004 M21/M23 A2959 RMK AO2 SLP023 T12111233
PABR 140400Z 13006KT 3SM BR OVC006 M21/M23 A2958 RMK AO2 T12061228
PABR 140353Z 13005KT 1 3/4SM BR OVC006 M21/M23 A2958 RMK AO2 SLP018 T12111228
PABR 140351Z 13005KT 1 3/4SM BR OVC007 M21/M23 A2958 RMK AO2 CIG 003 NE
PABR 140329Z 16007KT 1 3/4SM R07/5500VP6000FT BR SCT004 M22/M24 A2958 RMK AO2 T12171239
PABR 140253Z 11004KT 10SM SCT004 M22/M24 A2955 RMK AO2 SLP010 T12171239 53008
PABR 140153Z 14007KT 10SM SCT003 M21/M23 A2955 RMK AO2 SLP007 T12111233
PABR 140053Z 11008KT 10SM FEW004 M22/M24 A2954 RMK AO2 SLP003 T12171239
PABR 140000Z 12007KT 10SM FEW004 M21/M23 A2953 RMK AO2 T12111233
PABR 132353Z AUTO 12007KT 10SM CLR M21/M23 A2953 RMK AO2 SLP002 60000 T12061228 11161 21211 52011 TSNO
PABR 132253Z 11007KT 9SM CLR M21/M23 A2953 RMK AO2 SNB42E51 SLP000 FG BNK OVR WTR NW-NE P0000 T12061228
PABR 132153Z 12006KT 10SM SCT001 M20/M22 A2950 RMK AO2 SLP992 FG SCT001 FG BNK NW-NE T12001217
PABR 132111Z 12008KT 3SM BR BKN003 M19/M21 A2950 RMK AO2 VIS LWR N T11891211
PABR 132053Z 12007KT 1SM R07/3500V5000FT BR VV003 M19/M21 A2950 RMK AO2 SLP990 T11891211 53007
PABR 132013Z 12009KT 1SM R07/3000VP6000FT BR OVC003 M18/M21 A2949 RMK AO2 T11831206
PABR 131956Z 12009KT 2SM BR OVC002 M18/M21 A2949 RMK AO2 VIS 1 NE T11831206
PABR 131953Z 12010KT 1 3/4SM BR OVC002 M18/M21 A2949 RMK AO2 VIS 1 NE SLP987 VIS LWR N T11831206
PABR 131853Z 11007KT 1SM R07/4500VP6000FT BR OVC003 M17/M19 A2948 RMK AO2 SLP984 T11721189
PABR 131822Z 11008KT 10SM BKN005 M17/M19 A2948 RMK AO2 T11671189
PABR 131753Z 10006KT 3SM BR FEW002 M16/M18 A2948 RMK AO2 SNE30 SLP983 P0000 60000 I6000 T11611178 11094 21161 53002
PABR 131731Z 11008KT 3SM R07/3000VP6000FT BR OVC002 M14/M16 A2947 RMK AO2 SNE30 P0000 T11391156
PABR 131653Z 08007KT 1/2SM R07/2200V2800FT -SN FZFG VV002 M13/M14 A2947
PABR 131553Z 11008KT 1/2SM R07/2400V4000FT -SN FZFG VV002 M12/M14 A2947 RMK AO2 UPB39E44SNB44 SLP980 P0000 T11221139
PABR 131521Z 10007KT 1/2SM R07/2400V4000FT FZFG VV002 M12/M14 A2947 RMK AO2 T11221139
PABR 131512Z 10007KT 1/4SM R07/2000V3500FT FZFG VV002 M12/M14 A2947 RMK AO2 T11221139
PABR 131453Z 08007KT 1/4SM R07/1600V2200FT FZFG VV002 M11/M13 A2947 RMK AO2 SLP981 I3000 T11111133 58010
PABR 131446Z AUTO 08006KT 1/4SM R07/1600V2400FT FZFG VV002 M11/M13 A2948 RMK AO2 T11111128 TSNO
PABR 131353Z AUTO 05005KT 1/4SM R07/1600V2000FT FZFG VV002 M09/M11 A2949 RMK AO2 SLP987 I1000 T10941111 TSNO
PABR 131253Z AUTO 07006KT 1/2SM R07/2600V3000FT FZFG VV002 M10/M12 A2949 RMK AO2 SLP987 I1000 T11001122 TSNO
PABR 131153Z AUTO 08004KT 1/2SM R07/2600V2800FT FZFG VV003 M09/M11 A2950 RMK AO2 SLP991 I6000 T10941106 11089 21133 58007 TSNO
PABR 131108Z AUTO 06007KT 1/4SM R07/1800V3500FT FZFG VV002 M09/M11 A2951 RMK AO2 T10941106 TSNO
PABR 131053Z AUTO 06006KT 1/4SM R07/1800V2000FT FZFG VV002 M09/M11 A2951 RMK AO2 SLP995 T10941106 TSNO
PABR 131024Z AUTO 06006KT 1/4SM R07/1600V2200FT FZFG VV002 M09/M10 A2952 RMK AO2 T10891100 TSNO
PABR 131012Z AUTO 05010KT 1/4SM R07/1800V2400FT FZFG VV002 M09/M11 A2952 RMK AO2 T10941106 TSNO
PABR 130953Z AUTO 05010KT 1/4SM R07/1600V2200FT FZFG VV002 M09/M11 A2952 RMK AO2 SLP996 T10891106 TSNO
PABR 130853Z AUTO 06006KT 1/4SM R07/1400V1600FT FZFG VV002 M09/M11 A2952 RMK AO2 SLP998 I1000 I3000 T10941106 410781144 58009 TSNO
PABR 130753Z AUTO 06004KT 1/4SM R07/1200V1400FT FZFG VV002 M10/M12 A2954 RMK AO2 SLP004 I1000 T11001117 TSNO
PABR 130653Z 04005KT 1/4SM R07/1200FT FZFG VV002 M12/M14 A2955 RMK AO2 SLP008 I1000 T11171139
PABR 130651Z 04005KT 1/4SM R07/1200FT FZFG VV002 M12/M14 A2955 RMK AO2
PABR 130641Z 07003KT 1/4SM R07/1200V2400FT FZFG VV002 M13/M14 A2955 RMK AO2 T11281144
PABR 130553Z 00000KT 1/4SM R07/1600V1800FT FZFG VV002 M13/M14 A2956 RMK AO2 SLP010 I1000 I6000 T11331139 11089 21144 58005
PABR 130510Z 13003KT 1/4SM R07/1400V1600FT FZFG VV002 M13/M14 A2956 RMK AO2 T11281144
PABR 130459Z 14003KT 1/2SM R07/1400VP6000FT FZFG VV002 M13/M14 A2956 RMK AO2 T11281144
PABR 130456Z 15003KT 1 1/2SM R07/1800VP6000FT BR OVC002 M13/M14 A2956 RMK AO2 VIS 1/2 NE T11331144
PABR 130453Z 16003KT 6SM R07/3000VP6000FT BR OVC003 M13/M14 A2956 RMK AO2 VIS 1 NE SLP011 I1000 T11281139
PABR 130353Z 00000KT 4SM BR BKN003 M14/M15 A2957 RMK AO2 SLP016 T11391150
PABR 130330Z 00000KT 4SM BR BKN003 M14/M16 A2957 RMK AO2 T11391156
PABR 130253Z 08004KT 10SM SCT003 M13/M13 A2957 RMK AO2 SLP015 I1000 I3000 T11281133 58009
PABR 130246Z 08006KT 4SM BR FEW004 M12/M14 A2957 RMK AO2 I1000 T11221139
PABR 130153Z 05007KT 10SM CLR M12/M13 A2958 RMK AO2 SLP018 T11171128